Aérodrome :
LOGIN :

S'inscrire | Disclaimer

   EN    FR    IT 

 










Légende :    VFR   VFR Marginal   IFR   IFR Intensif   IFR Très Intensif
Visi : 
Plafond : 
>= 8 km
>= 3000ft
5 à 8 km
1000 à 3000 ft
1500m à 5 km
500 à 1000 ft
800 à 1500m
200 à 500 ft
< 800m
< 200 ft
Symboles :   Orages  Brouillard  Fortes neiges  Fortes précipitations  Vent > 20 kt
SIGMETs :   Divers  Orages  Givrage  Turbulence  Onde Orograph.  Cendres Volcan.






- Altitude de l'aérodrome : 401 ft
- Code IATA : LEQ


EGHC - Land's End

DERNIER METAR :
  • 271550Z 34011KT 9999 FEW020 07/01 Q1012

METARs EXPIRÉS :
  • 271520Z 33012KT 9999 FEW020 07/01 Q1012
  • 271450Z 34014KT 9999 FEW018 08/02 Q1012
  • 271420Z 34017KT 9999 FEW018 07/02 Q1011
  • 271350Z 33014KT 9999 FEW018 08/03 Q1011
  • 271320Z 33015KT 9999 FEW016 07/03 Q1010

TAF TAF EGHC
Valide du 27 à 15h jusqu'au 27 à 18h UTC


271358Z 2715/2718 35014KT 9999 SCT025



MET'MAP, la Météo Aéronautique d'un coup d'oeil ! - Copyright ORBIFLY Décembre 2007 - Disclaimer

ORBIFLY MET'MAP TEAM :

Programmation & Développement : Alexandra Zaïnal
Sur une idée originale de : Baudouin d'Aumeries
Assistance à la programmation : Marc-Olivier Méhu
Soutien technique & logistique : Manuel Goepfert

Contact : metmap@orbifly.com




SOURCES & CREDITS :

   NOAA